createdAt,value
2023-04-12T00:01:08.342Z,67.50
2023-04-12T00:03:35.758Z,67.40
2023-04-12T00:06:03.637Z,67.50
2023-04-12T00:08:33.994Z,67.50
2023-04-12T00:11:02.905Z,67.50
2023-04-12T00:13:30.918Z,67.50
2023-04-12T00:15:58.388Z,67.50
2023-04-12T00:18:26.195Z,67.50
2023-04-12T00:20:55.759Z,67.50
2023-04-12T00:23:23.090Z,67.50
2023-04-12T00:25:50.802Z,67.60
2023-04-12T00:28:18.392Z,67.60
2023-04-12T00:30:46.201Z,67.60
2023-04-12T00:33:13.556Z,67.60
2023-04-12T00:35:41.058Z,67.60
2023-04-12T00:38:10.822Z,67.60
2023-04-12T00:40:42.911Z,67.70
2023-04-12T00:43:15.709Z,67.80
2023-04-12T00:45:43.288Z,67.80
2023-04-12T00:48:10.993Z,67.70
2023-04-12T00:50:38.405Z,67.80
2023-04-12T00:53:05.739Z,67.90
2023-04-12T00:55:33.063Z,67.90
2023-04-12T00:58:00.556Z,68.00
2023-04-12T01:00:28.063Z,68.00
2023-04-12T01:02:56.154Z,68.10
2023-04-12T01:05:24.530Z,68.10
2023-04-12T01:08:21.516Z,68.20
2023-04-12T01:11:01.358Z,68.20
2023-04-12T01:13:39.772Z,68.20
2023-04-12T01:16:15.321Z,68.30
2023-04-12T01:18:50.719Z,68.30
2023-04-12T01:22:13.661Z,68.30
2023-04-12T01:25:24.355Z,68.20
2023-04-12T01:28:01.145Z,68.30
2023-04-12T01:30:29.849Z,68.30
2023-04-12T01:33:01.305Z,68.30
2023-04-12T01:35:34.946Z,68.50
2023-04-12T01:38:04.479Z,68.50
2023-04-12T01:40:32.715Z,68.50
2023-04-12T01:43:11.483Z,68.60
2023-04-12T01:45:39.690Z,68.60
2023-04-12T01:48:09.544Z,68.60
2023-04-12T01:50:46.133Z,68.70
2023-04-12T01:53:19.163Z,68.80
2023-04-12T01:55:48.996Z,68.80
2023-04-12T01:58:21.149Z,68.90
2023-04-12T02:00:50.426Z,68.90
2023-04-12T02:03:23.543Z,69.00
2023-04-12T02:05:52.369Z,69.00
2023-04-12T02:08:21.935Z,69.10
2023-04-12T02:10:49.138Z,69.10
2023-04-12T02:13:18.353Z,69.20
2023-04-12T02:15:46.178Z,69.30
2023-04-12T02:18:14.096Z,69.30
2023-04-12T02:20:44.027Z,69.40
2023-04-12T02:23:11.334Z,69.40
2023-04-12T02:25:41.487Z,69.40
2023-04-12T02:28:09.017Z,69.50
2023-04-12T02:30:36.519Z,69.50
2023-04-12T02:33:06.247Z,69.60
2023-04-12T02:35:37.032Z,69.60
2023-04-12T02:38:08.762Z,69.70
2023-04-12T02:40:43.057Z,69.30
2023-04-12T02:43:15.066Z,69.70
2023-04-12T02:45:46.971Z,69.90
2023-04-12T02:48:15.059Z,70.10
2023-04-12T02:50:43.033Z,70.20
2023-04-12T02:53:17.364Z,70.30
2023-04-12T02:55:49.479Z,70.40
2023-04-12T02:58:22.054Z,70.50
2023-04-12T03:00:51.815Z,70.10
2023-04-12T03:03:26.329Z,70.50
2023-04-12T03:05:58.635Z,70.80
2023-04-12T03:08:26.313Z,70.30
2023-04-12T03:10:58.001Z,70.90
2023-04-12T03:13:27.149Z,71.20
2023-04-12T03:15:59.103Z,71.50
2023-04-12T03:18:34.923Z,71.60
2023-04-12T03:21:02.609Z,71.70
2023-04-12T03:23:31.228Z,72.00
2023-04-12T03:26:13.768Z,72.00
2023-04-12T03:28:59.314Z,72.00
2023-04-12T03:31:27.335Z,72.20
2023-04-12T03:33:56.789Z,72.10
2023-04-12T03:36:27.225Z,72.10
2023-04-12T03:39:09.246Z,72.10
2023-04-12T03:41:38.574Z,72.00
2023-04-12T03:44:05.837Z,72.10
2023-04-12T03:46:35.664Z,72.20
2023-04-12T03:49:07.833Z,72.30
2023-04-12T03:51:35.741Z,72.20
2023-04-12T03:54:04.713Z,72.30
2023-04-12T03:56:46.755Z,72.40
2023-04-12T03:59:22.609Z,72.60
2023-04-12T04:01:51.041Z,72.60
2023-04-12T04:04:19.330Z,72.80
2023-04-12T04:06:48.793Z,73.00
2023-04-12T04:09:17.083Z,73.00
2023-04-12T04:11:44.685Z,73.20
2023-04-12T04:14:12.813Z,73.20
2023-04-12T04:16:40.417Z,73.30
2023-04-12T04:19:09.446Z,73.30
2023-04-12T04:21:36.722Z,73.40
2023-04-12T04:24:04.397Z,73.50
2023-04-12T04:26:38.473Z,73.40
2023-04-12T04:29:23.820Z,73.50
2023-04-12T04:31:53.328Z,73.50
2023-04-12T04:34:22.443Z,73.50
2023-04-12T04:36:53.041Z,73.50
2023-04-12T04:39:27.578Z,74.00
2023-04-12T04:41:57.680Z,73.60
2023-04-12T04:44:51.306Z,73.60
2023-04-12T04:47:18.782Z,73.60
2023-04-12T04:49:48.251Z,73.70
2023-04-12T04:52:23.768Z,73.80
2023-04-12T04:54:57.679Z,73.90
2023-04-12T04:57:27.944Z,73.90
2023-04-12T04:59:56.971Z,73.90
2023-04-12T05:02:24.462Z,74.10
2023-04-12T05:04:51.841Z,74.10
2023-04-12T05:07:23.714Z,74.20
2023-04-12T05:09:51.045Z,74.20
2023-04-12T05:12:20.215Z,74.30
2023-04-12T05:14:52.104Z,74.30
2023-04-12T05:17:20.173Z,74.40
2023-04-12T05:19:47.868Z,74.40
2023-04-12T05:22:20.358Z,74.40
2023-04-12T05:24:50.940Z,74.50
2023-04-12T05:27:19.355Z,74.60
2023-04-12T05:29:48.632Z,74.70
2023-04-12T05:32:18.956Z,74.70
2023-04-12T05:34:47.286Z,74.80
2023-04-12T05:37:15.575Z,74.90
2023-04-12T05:39:43.566Z,74.90
2023-04-12T05:42:11.085Z,74.90
2023-04-12T05:44:39.440Z,75.00
2023-04-12T05:47:10.494Z,75.10
2023-04-12T05:49:37.906Z,75.20
2023-04-12T05:52:08.756Z,75.20
2023-04-12T05:54:37.215Z,75.80
2023-04-12T05:57:05.496Z,75.30
2023-04-12T05:59:33.385Z,75.50
2023-04-12T06:02:02.306Z,75.60
2023-04-12T06:04:48.802Z,75.60
2023-04-12T06:07:19.647Z,75.80
2023-04-12T06:09:50.275Z,75.80
2023-04-12T06:12:18.618Z,76.00
2023-04-12T06:14:47.005Z,76.00
2023-04-12T06:17:14.433Z,75.90
2023-04-12T06:19:42.281Z,76.10
2023-04-12T06:22:10.184Z,76.10
2023-04-12T06:24:39.575Z,76.20
2023-04-12T06:27:11.407Z,76.30
2023-04-12T06:29:38.733Z,76.30
2023-04-12T06:32:06.425Z,76.40
2023-04-12T06:34:34.805Z,76.50
2023-04-12T06:37:08.348Z,76.60
2023-04-12T06:39:35.601Z,76.60
2023-04-12T06:42:03.300Z,76.70
2023-04-12T06:44:30.673Z,76.70
2023-04-12T06:46:58.305Z,76.70
2023-04-12T06:49:25.915Z,76.80
2023-04-12T06:51:53.203Z,76.80
2023-04-12T06:54:20.454Z,76.90
2023-04-12T06:56:47.632Z,77.00
2023-04-12T06:59:14.931Z,77.10
2023-04-12T07:01:43.492Z,77.20
2023-04-12T07:04:11.880Z,77.30
2023-04-12T07:06:39.450Z,77.30
2023-04-12T07:09:06.843Z,77.30
2023-04-12T07:11:34.144Z,77.40
2023-04-12T07:14:01.507Z,77.50
2023-04-12T07:16:31.652Z,77.50
2023-04-12T07:19:00.739Z,77.70
2023-04-12T07:21:28.318Z,77.70
2023-04-12T07:23:56.236Z,77.80
2023-04-12T07:26:23.916Z,77.90
2023-04-12T07:28:51.301Z,77.80
2023-04-12T07:31:18.753Z,77.90
2023-04-12T07:33:46.293Z,77.90
2023-04-12T07:36:17.257Z,77.90
2023-04-12T07:38:44.646Z,78.00
2023-04-12T07:41:12.020Z,78.00
2023-04-12T07:43:39.263Z,78.20
2023-04-12T07:46:08.841Z,78.30
2023-04-12T07:48:36.372Z,78.30
2023-04-12T07:51:03.835Z,78.40
2023-04-12T07:53:31.592Z,78.60
2023-04-12T07:55:58.887Z,78.60
2023-04-12T07:58:26.259Z,78.60
2023-04-12T08:00:54.409Z,78.60
2023-04-12T08:03:22.055Z,78.80
2023-04-12T08:05:53.816Z,78.90
2023-04-12T08:08:22.869Z,78.90
2023-04-12T08:10:51.499Z,78.90
2023-04-12T08:13:19.104Z,79.00
2023-04-12T08:15:47.872Z,79.20
2023-04-12T08:18:15.841Z,79.20
2023-04-12T08:20:44.387Z,79.40
2023-04-12T08:23:12.288Z,79.40
2023-04-12T08:25:39.933Z,79.50
2023-04-12T08:28:10.302Z,79.60
2023-04-12T08:30:37.594Z,79.60
2023-04-12T08:33:04.943Z,79.70
2023-04-12T08:35:32.898Z,79.70
2023-04-12T08:38:06.978Z,79.70
2023-04-12T08:40:37.412Z,79.70
2023-04-12T08:43:12.273Z,79.60
2023-04-12T08:45:39.591Z,79.70
2023-04-12T08:48:07.501Z,79.70
2023-04-12T08:50:35.350Z,79.60
2023-04-12T08:53:03.419Z,79.50
2023-04-12T08:55:30.730Z,79.60
2023-04-12T08:57:59.139Z,79.60
2023-04-12T09:00:26.866Z,79.60
2023-04-12T09:02:54.620Z,79.80
2023-04-12T09:05:28.591Z,79.70
2023-04-12T09:07:56.024Z,79.60
2023-04-12T09:10:38.092Z,79.50
2023-04-12T09:13:06.541Z,79.60
2023-04-12T09:15:34.892Z,79.50
2023-04-12T09:18:08.354Z,79.50
2023-04-12T09:20:36.486Z,79.60
2023-04-12T09:23:26.484Z,79.80
2023-04-12T09:25:53.909Z,79.70
2023-04-12T09:28:26.417Z,79.70
2023-04-12T09:30:58.049Z,79.80
2023-04-12T09:33:39.171Z,79.40
2023-04-12T09:36:13.549Z,79.60
2023-04-12T09:38:43.173Z,79.60
2023-04-12T09:41:21.606Z,79.60
2023-04-12T09:43:51.236Z,79.80
2023-04-12T09:46:18.854Z,79.90
2023-04-12T09:48:52.380Z,80.10
2023-04-12T09:51:31.468Z,80.50
2023-04-12T09:54:04.131Z,80.80
2023-04-12T09:56:32.572Z,81.00
2023-04-12T09:59:05.548Z,80.70
2023-04-12T10:01:41.365Z,81.00
2023-04-12T10:04:09.902Z,80.90
2023-04-12T10:06:37.890Z,80.90
2023-04-12T10:09:06.888Z,80.70
2023-04-12T10:11:34.571Z,80.60
2023-04-12T10:14:06.189Z,80.50
2023-04-12T10:16:36.982Z,80.50
2023-04-12T10:19:04.700Z,80.50
2023-04-12T10:21:32.292Z,80.00
2023-04-12T10:24:00.758Z,79.30
2023-04-12T10:26:28.398Z,78.80
2023-04-12T10:29:27.499Z,78.50
2023-04-12T10:31:57.308Z,78.00
2023-04-12T10:34:29.217Z,77.60
2023-04-12T10:37:01.365Z,77.30
2023-04-12T10:39:38.896Z,77.10
2023-04-12T10:42:15.857Z,76.70
2023-04-12T10:44:43.180Z,76.40
2023-04-12T10:47:11.525Z,76.30
2023-04-12T10:49:39.474Z,76.20
2023-04-12T10:52:09.835Z,76.00
2023-04-12T10:54:37.400Z,75.90
2023-04-12T10:57:07.256Z,75.40
2023-04-12T10:59:57.203Z,75.10
2023-04-12T11:02:26.036Z,75.10
2023-04-12T11:05:10.946Z,74.80
2023-04-12T11:08:08.092Z,75.00
2023-04-12T11:10:53.803Z,74.60
2023-04-12T11:13:30.844Z,74.00
2023-04-12T11:16:06.457Z,74.30
2023-04-12T11:18:35.794Z,73.70
2023-04-12T11:21:04.798Z,74.10
2023-04-12T11:23:33.040Z,74.80
2023-04-12T11:26:00.580Z,74.80
2023-04-12T11:28:31.791Z,74.20
2023-04-12T11:31:00.532Z,74.30
2023-04-12T11:33:40.059Z,75.10
2023-04-12T11:36:10.256Z,73.50
2023-04-12T11:38:38.242Z,72.40
2023-04-12T11:41:08.181Z,72.60
2023-04-12T11:43:36.284Z,72.40
2023-04-12T11:46:03.867Z,72.30
2023-04-12T11:48:31.356Z,72.50
2023-04-12T11:51:10.258Z,72.00
2023-04-12T11:53:39.600Z,71.00
2023-04-12T11:56:10.445Z,71.10
2023-04-12T11:58:37.757Z,71.10
2023-04-12T12:01:05.784Z,70.70
2023-04-12T12:03:33.667Z,70.80
2023-04-12T12:06:01.736Z,70.80
2023-04-12T12:08:29.838Z,71.00
2023-04-12T12:11:07.417Z,71.20
2023-04-12T12:13:48.632Z,71.60
2023-04-12T12:16:16.779Z,71.50
2023-04-12T12:18:45.145Z,71.20
2023-04-12T12:21:15.974Z,71.20
2023-04-12T12:23:44.201Z,71.40
2023-04-12T12:26:23.706Z,71.60
2023-04-12T12:28:52.745Z,71.30
2023-04-12T12:31:25.316Z,71.60
2023-04-12T12:33:59.530Z,71.90
2023-04-12T12:36:34.159Z,72.60
2023-04-12T12:39:10.675Z,72.30
2023-04-12T12:41:39.335Z,71.90
2023-04-12T12:44:08.194Z,72.10
2023-04-12T12:49:06.497Z,72.30
2023-04-12T12:51:33.928Z,72.00
2023-04-12T12:54:01.462Z,72.00
2023-04-12T12:56:29.021Z,71.90
2023-04-12T12:58:56.529Z,71.80
2023-04-12T13:01:27.774Z,71.50
2023-04-12T13:03:55.188Z,71.30
2023-04-12T13:06:23.360Z,71.10
2023-04-12T13:08:52.409Z,71.00
2023-04-12T13:11:20.556Z,71.00
2023-04-12T13:13:47.946Z,71.30
2023-04-12T13:16:15.903Z,71.40
2023-04-12T13:18:43.733Z,71.40
2023-04-12T13:21:11.198Z,71.40
2023-04-12T13:23:38.458Z,71.80
2023-04-12T13:26:06.315Z,71.30
2023-04-12T13:28:33.601Z,71.30
2023-04-12T13:31:01.549Z,71.30
2023-04-12T13:33:29.136Z,71.10
2023-04-12T13:35:56.535Z,71.00
2023-04-12T13:38:23.836Z,71.60
2023-04-12T13:40:51.243Z,72.00
2023-04-12T13:43:18.547Z,72.30
2023-04-12T13:45:45.914Z,71.90
2023-04-12T13:48:13.313Z,71.00
2023-04-12T13:50:40.769Z,70.70
2023-04-12T13:53:08.078Z,69.40
2023-04-12T13:55:35.566Z,68.70
2023-04-12T13:58:03.034Z,68.80
2023-04-12T14:00:30.284Z,69.00
2023-04-12T14:02:57.745Z,69.10
2023-04-12T14:05:25.063Z,69.10
2023-04-12T14:07:52.796Z,69.50
2023-04-12T14:10:20.017Z,69.90
2023-04-12T14:12:47.531Z,70.30
2023-04-12T14:15:14.880Z,70.50
2023-04-12T14:17:42.714Z,70.60
2023-04-12T14:20:13.547Z,70.90
2023-04-12T14:22:41.017Z,71.20
2023-04-12T14:25:08.770Z,71.40
2023-04-12T14:27:36.620Z,71.60
2023-04-12T14:30:05.234Z,72.00
2023-04-12T14:32:32.559Z,72.60
2023-04-12T14:34:59.922Z,72.90
2023-04-12T14:37:27.584Z,73.30
2023-04-12T14:39:54.992Z,73.60
2023-04-12T14:42:22.325Z,73.90
2023-04-12T14:44:49.809Z,74.10
2023-04-12T14:47:17.484Z,74.30
2023-04-12T14:49:46.471Z,74.70
2023-04-12T14:52:13.725Z,74.60
2023-04-12T14:54:41.558Z,74.60
2023-04-12T14:57:09.291Z,74.70
2023-04-12T14:59:36.517Z,74.70
2023-04-12T15:02:04.079Z,74.20
2023-04-12T15:04:31.507Z,73.80
2023-04-12T15:06:59.048Z,73.50
2023-04-12T15:09:26.567Z,73.60
2023-04-12T15:12:01.571Z,73.80
2023-04-12T15:14:29.251Z,73.80
2023-04-12T15:16:57.377Z,73.70
2023-04-12T15:19:24.715Z,73.70
2023-04-12T15:21:52.727Z,73.70
2023-04-12T15:24:20.101Z,73.70
2023-04-12T15:26:52.991Z,73.80
2023-04-12T15:29:22.910Z,73.60
2023-04-12T15:31:50.935Z,73.20
2023-04-12T15:34:18.557Z,72.40
2023-04-12T15:36:46.199Z,72.10
2023-04-12T15:39:15.219Z,72.20
2023-04-12T15:41:43.762Z,72.30
2023-04-12T15:44:13.547Z,72.00
2023-04-12T15:46:43.844Z,72.10
2023-04-12T15:49:11.624Z,72.10
2023-04-12T15:51:39.613Z,71.90
2023-04-12T15:54:07.107Z,72.30
2023-04-12T15:56:35.292Z,72.00
2023-04-12T15:59:03.276Z,71.80
2023-04-12T16:01:30.732Z,71.90
2023-04-12T16:03:58.168Z,71.70
2023-04-12T16:06:25.684Z,71.40
2023-04-12T16:08:59.237Z,71.60
2023-04-12T16:11:27.015Z,71.70
2023-04-12T16:13:55.299Z,71.80
2023-04-12T16:16:23.734Z,71.80
2023-04-12T16:18:52.931Z,71.50
2023-04-12T16:21:22.465Z,71.40
2023-04-12T16:23:53.334Z,71.50
2023-04-12T16:26:22.211Z,71.50
2023-04-12T16:28:53.559Z,71.80
2023-04-12T16:31:21.235Z,72.00
2023-04-12T16:33:51.975Z,71.60
2023-04-12T16:36:19.600Z,70.60
2023-04-12T16:38:46.871Z,70.40
2023-04-12T16:41:14.229Z,69.80
2023-04-12T16:43:44.051Z,69.30
2023-04-12T16:46:12.953Z,68.70
2023-04-12T16:48:41.355Z,68.70
2023-04-12T16:51:09.044Z,68.50
2023-04-12T16:53:37.603Z,68.20
2023-04-12T16:56:05.307Z,67.30
2023-04-12T16:58:33.539Z,67.10
2023-04-12T17:01:01.197Z,67.10
2023-04-12T17:03:29.115Z,67.20
2023-04-12T17:05:56.728Z,67.10
2023-04-12T17:08:24.139Z,67.20
2023-04-12T17:10:51.511Z,66.80
2023-04-12T17:13:20.400Z,66.70
2023-04-12T17:15:50.851Z,67.30
2023-04-12T17:18:18.291Z,67.80
2023-04-12T17:20:45.896Z,67.70
2023-04-12T17:23:13.725Z,67.70
2023-04-12T17:25:42.016Z,67.50
2023-04-12T17:28:09.567Z,67.00
2023-04-12T17:30:37.274Z,67.10
2023-04-12T17:33:05.191Z,67.50
2023-04-12T17:35:32.563Z,67.50
2023-04-12T17:37:59.859Z,67.50
2023-04-12T17:40:27.263Z,67.70
2023-04-12T17:42:54.568Z,68.20
2023-04-12T17:45:23.724Z,68.20
2023-04-12T17:47:51.668Z,68.30
2023-04-12T17:50:19.046Z,68.40
2023-04-12T17:52:47.006Z,68.60
2023-04-12T17:55:14.529Z,68.70
2023-04-12T17:57:42.583Z,68.70
2023-04-12T18:00:12.108Z,68.70
2023-04-12T18:02:46.661Z,68.60
2023-04-12T18:05:14.197Z,69.40
2023-04-12T18:07:42.738Z,69.30
2023-04-12T18:10:12.854Z,69.30
2023-04-12T18:12:41.148Z,69.20
2023-04-12T18:15:09.165Z,69.20
2023-04-12T18:17:37.091Z,69.10
2023-04-12T18:20:09.739Z,68.60
2023-04-12T18:22:37.776Z,68.30
2023-04-12T18:25:08.493Z,69.00
2023-04-12T18:27:36.195Z,68.40
2023-04-12T18:30:05.105Z,68.30
2023-04-12T18:32:32.633Z,68.30
2023-04-12T18:35:00.351Z,68.30
2023-04-12T18:37:28.086Z,68.20
2023-04-12T18:39:55.642Z,68.40
2023-04-12T18:42:23.265Z,68.50
2023-04-12T18:44:51.424Z,68.60
2023-04-12T18:47:19.151Z,68.30
2023-04-12T18:49:46.399Z,68.40
2023-04-12T18:52:13.866Z,68.40
2023-04-12T18:54:41.508Z,68.10
2023-04-12T18:57:09.203Z,68.00
2023-04-12T18:59:36.518Z,68.10
2023-04-12T19:02:03.984Z,68.00
2023-04-12T19:04:31.292Z,68.30
2023-04-12T19:06:58.660Z,68.30
2023-04-12T19:09:26.015Z,68.30
2023-04-12T19:11:55.716Z,68.20
2023-04-12T19:14:23.314Z,68.10
2023-04-12T19:16:51.097Z,68.10
2023-04-12T19:19:18.408Z,68.00
2023-04-12T19:21:46.084Z,67.80
2023-04-12T19:24:13.415Z,68.00
2023-04-12T19:26:49.657Z,68.00
2023-04-12T19:29:17.110Z,68.00
2023-04-12T19:31:47.455Z,68.00
2023-04-12T19:34:17.733Z,68.10
2023-04-12T19:36:45.598Z,68.00
2023-04-12T19:39:12.976Z,68.20
2023-04-12T19:41:40.293Z,68.20
2023-04-12T19:44:07.692Z,68.20
2023-04-12T19:46:38.829Z,68.20
2023-04-12T19:49:06.613Z,68.30
2023-04-12T19:51:34.837Z,68.40
2023-04-12T19:54:02.967Z,68.40
2023-04-12T19:56:31.708Z,68.40
2023-04-12T19:59:00.183Z,68.40
2023-04-12T20:01:27.719Z,68.50
2023-04-12T20:03:55.012Z,68.60
2023-04-12T20:06:22.685Z,68.70
2023-04-12T20:08:50.026Z,68.80
2023-04-12T20:11:18.077Z,68.90
2023-04-12T20:13:45.682Z,69.50
2023-04-12T20:16:13.300Z,69.00
2023-04-12T20:18:40.896Z,69.20
2023-04-12T20:21:10.232Z,69.30
2023-04-12T20:23:37.613Z,69.50
2023-04-12T20:26:05.711Z,69.60
2023-04-12T20:28:33.204Z,69.70
2023-04-12T20:31:00.968Z,69.80
2023-04-12T20:33:28.314Z,69.80
2023-04-12T20:35:55.659Z,69.90
2023-04-12T20:38:23.329Z,70.60
2023-04-12T20:40:51.526Z,70.00
2023-04-12T20:43:18.772Z,70.10
2023-04-12T20:45:47.096Z,70.20
2023-04-12T20:48:14.503Z,70.30
2023-04-12T20:50:42.500Z,70.50
2023-04-12T20:53:13.160Z,70.80
2023-04-12T20:55:40.441Z,71.10
2023-04-12T20:58:08.216Z,71.40
2023-04-12T21:00:35.850Z,71.50
2023-04-12T21:03:03.321Z,71.70
2023-04-12T21:05:33.860Z,71.90
2023-04-12T21:08:02.317Z,72.00
2023-04-12T21:10:29.707Z,72.00
2023-04-12T21:12:58.371Z,72.10
2023-04-12T21:15:25.692Z,72.10
2023-04-12T21:17:53.086Z,72.00
2023-04-12T21:20:20.529Z,72.10
2023-04-12T21:22:51.323Z,72.10
2023-04-12T21:25:19.017Z,72.20
2023-04-12T21:27:47.323Z,72.20
2023-04-12T21:30:14.828Z,72.20
2023-04-12T21:32:45.929Z,72.30
2023-04-12T21:35:16.491Z,72.30
2023-04-12T21:37:43.781Z,72.30
2023-04-12T21:40:12.785Z,72.40
2023-04-12T21:42:41.126Z,72.50
2023-04-12T21:45:09.980Z,72.60
2023-04-12T21:47:40.156Z,72.80
2023-04-12T21:50:09.329Z,72.90
2023-04-12T21:52:37.156Z,72.90
2023-04-12T21:55:06.006Z,72.90
2023-04-12T21:57:34.594Z,73.00
2023-04-12T22:00:02.999Z,73.00
2023-04-12T22:02:39.387Z,73.00
2023-04-12T22:05:07.945Z,73.00
2023-04-12T22:07:35.573Z,72.90
2023-04-12T22:10:03.141Z,73.00
2023-04-12T22:12:33.925Z,73.00
2023-04-12T22:15:01.195Z,72.90
2023-04-12T22:17:30.172Z,73.00
2023-04-12T22:19:58.218Z,73.00
2023-04-12T22:22:27.541Z,73.00
2023-04-12T22:24:54.913Z,73.00
2023-04-12T22:27:22.220Z,73.10
2023-04-12T22:29:50.197Z,73.00
2023-04-12T22:32:17.510Z,73.10
2023-04-12T22:34:45.045Z,73.10
2023-04-12T22:37:13.777Z,73.20
2023-04-12T22:39:41.110Z,73.20
2023-04-12T22:42:08.471Z,73.20
2023-04-12T22:44:38.502Z,73.50
2023-04-12T22:47:09.197Z,73.30
2023-04-12T22:49:46.447Z,73.30
2023-04-12T22:52:13.778Z,73.30
2023-04-12T22:54:41.070Z,73.30
2023-04-12T22:57:08.639Z,73.30
2023-04-12T22:59:36.182Z,73.40
2023-04-12T23:02:03.772Z,73.40
2023-04-12T23:04:31.194Z,73.40
2023-04-12T23:06:58.397Z,73.50
2023-04-12T23:09:25.774Z,73.60
2023-04-12T23:11:53.149Z,73.60
2023-04-12T23:14:20.417Z,73.60
2023-04-12T23:16:47.580Z,73.70
2023-04-12T23:19:15.030Z,73.70
2023-04-12T23:21:43.161Z,73.90
2023-04-12T23:24:15.672Z,73.90
2023-04-12T23:26:45.431Z,74.00
2023-04-12T23:29:13.110Z,74.00
2023-04-12T23:31:43.180Z,74.00
2023-04-12T23:34:10.763Z,74.00
2023-04-12T23:36:37.980Z,74.10
2023-04-12T23:39:09.153Z,74.10
2023-04-12T23:41:36.532Z,74.20
2023-04-12T23:44:03.767Z,74.20
2023-04-12T23:46:31.401Z,74.30
2023-04-12T23:48:58.832Z,74.90
2023-04-12T23:51:27.390Z,74.40
2023-04-12T23:53:54.578Z,74.40
2023-04-12T23:56:22.210Z,74.50
2023-04-12T23:58:49.551Z,74.60
